Time;durP1;ratioP1;P1;durP2;ratioP2;P2;SDS_P1;SDS_P2;PMS_P1;PMS_P2;Temp;Humidity;BMP_temperature;BMP_pressure;BME280_temperature;BME280_humidity;BME280_pressure;Samples;Min_cycle;Max_cycle;Signal;HPM_P1;HPM_P2
2022/06/30 00:01:28;;;;;;;14.70;12.90;;;;;;;23.80;68.27;98128.64;106174;1282;23416;-83
2022/06/30 00:03:54;;;;;;;15.30;13.80;;;;;;;23.77;68.58;98125.16;106107;1283;22565;-82
2022/06/30 00:06:20;;;;;;;14.60;13.10;;;;;;;23.73;68.49;98120.73;106283;1283;138877;-82
2022/06/30 00:08:49;;;;;;;15.50;13.90;;;;;;;23.69;68.46;98122.11;106099;1282;25281;-83
2022/06/30 00:11:23;;;;;;;15.30;13.70;;;;;;;23.65;68.72;98124.48;106162;1283;137785;-83
2022/06/30 00:13:50;;;;;;;15.90;14.20;;;;;;;23.59;68.75;98130.15;105956;1283;23333;-83
2022/06/30 00:16:17;;;;;;;16.30;13.30;;;;;;;23.57;68.97;98134.35;105942;1283;25385;-82
2022/06/30 00:18:47;;;;;;;15.30;13.80;;;;;;;23.55;68.84;98132.84;105687;1283;138358;-82
2022/06/30 00:21:13;;;;;;;16.90;14.50;;;;;;;23.55;69.03;98135.88;105867;1284;22602;-82
2022/06/30 00:23:39;;;;;;;17.40;14.70;;;;;;;23.55;68.93;98138.39;106040;1284;137450;-82
2022/06/30 00:26:06;;;;;;;18.20;14.70;;;;;;;23.56;69.20;98145.19;106152;1283;22610;-82
2022/06/30 00:28:33;;;;;;;17.80;14.80;;;;;;;23.55;69.12;98146.02;106110;1284;25478;-83
2022/06/30 00:31:02;;;;;;;18.80;14.90;;;;;;;23.54;69.22;98144.64;105797;1284;139067;-83
2022/06/30 00:33:30;;;;;;;15.50;13.60;;;;;;;23.52;69.13;98144.82;105760;1283;22591;-83
2022/06/30 00:35:56;;;;;;;15.20;13.70;;;;;;;23.52;69.33;98145.19;106001;1283;138862;-82
2022/06/30 00:38:23;;;;;;;16.00;14.30;;;;;;;23.49;69.33;98145.04;106104;1284;22690;-83
2022/06/30 00:40:49;;;;;;;15.10;13.60;;;;;;;23.48;69.34;98146.02;105849;1284;22570;-83
2022/06/30 00:43:15;;;;;;;16.00;14.30;;;;;;;23.46;69.50;98146.10;105768;1283;137448;-83
2022/06/30 00:45:43;;;;;;;15.80;14.10;;;;;;;23.45;69.66;98148.05;106508;1283;25351;-83
2022/06/30 00:48:11;;;;;;;16.80;14.90;;;;;;;23.43;69.57;98145.44;106111;1284;137500;-82
2022/06/30 00:50:39;;;;;;;15.40;13.10;;;;;;;23.43;69.70;98142.23;106403;1283;22606;-82
2022/06/30 00:53:10;;;;;;;16.30;14.60;;;;;;;23.41;69.72;98142.80;106039;1283;138579;-83
2022/06/30 00:55:38;;;;;;;16.30;14.60;;;;;;;23.40;69.69;98146.63;106062;1284;24326;-82
2022/06/30 00:58:07;;;;;;;17.30;15.10;;;;;;;23.40;69.78;98150.69;105844;1285;22955;-82
2022/06/30 01:00:39;;;;;;;19.00;15.30;;;;;;;23.40;69.87;98149.02;105914;1285;137632;-83
2022/06/30 01:03:09;;;;;;;16.10;14.60;;;;;;;23.40;69.93;98148.01;105843;1285;22595;-82
2022/06/30 01:05:37;;;;;;;16.90;14.50;;;;;;;23.40;69.92;98145.20;105853;1284;137757;-83
2022/06/30 01:08:04;;;;;;;16.90;14.10;;;;;;;23.38;70.10;98146.65;105951;1283;25507;-82
2022/06/30 01:13:14;;;;;;;16.90;14.70;;;;;;;23.36;70.20;98137.84;105648;1284;137391;-82
2022/06/30 01:15:45;;;;;;;16.80;15.00;;;;;;;23.35;70.30;98137.62;105673;1283;22706;-82
2022/06/30 01:18:14;;;;;;;15.90;14.20;;;;;;;23.33;70.53;98136.52;105737;1283;137740;-82
2022/06/30 01:20:40;;;;;;;17.30;15.00;;;;;;;23.29;70.47;98143.28;105738;1283;22593;-82
2022/06/30 01:23:08;;;;;;;17.80;14.80;;;;;;;23.23;70.64;98141.26;105800;1283;138191;-82
2022/06/30 01:25:36;;;;;;;16.10;14.50;;;;;;;23.18;70.79;98139.79;105920;1283;25381;-83
2022/06/30 01:28:05;;;;;;;15.60;14.00;;;;;;;23.15;71.04;98144.55;105676;1283;23268;-82
2022/06/30 01:30:31;;;;;;;17.10;14.40;;;;;;;23.13;71.30;98142.89;106201;1283;137507;-82
2022/06/30 01:32:58;;;;;;;17.00;15.30;;;;;;;23.13;71.23;98143.37;106050;1283;22568;-82
2022/06/30 01:35:27;;;;;;;17.40;15.60;;;;;;;23.10;71.41;98138.44;105875;1282;137690;-82
2022/06/30 01:37:56;;;;;;;16.80;14.70;;;;;;;23.07;71.59;98135.66;106179;1282;23957;-82
2022/06/30 01:40:29;;;;;;;15.90;14.30;;;;;;;23.06;71.77;98136.19;106463;1283;22638;-83
2022/06/30 01:43:11;;;;;;;17.40;14.80;;;;;;;23.05;71.86;98132.73;105956;1282;137712;-82
2022/06/30 01:45:39;;;;;;;18.60;16.70;;;;;;;23.03;72.01;98132.13;106004;1283;487291;-82
2022/06/30 01:48:06;;;;;;;16.60;14.90;;;;;;;22.98;72.12;98130.20;105663;1283;137937;-82
2022/06/30 01:50:47;;;;;;;17.60;15.60;;;;;;;22.92;72.36;98125.84;106014;1284;23983;-82
2022/06/30 01:53:22;;;;;;;16.60;15.10;;;;;;;22.87;72.49;98125.42;106085;1283;138000;-82
2022/06/30 01:55:54;;;;;;;17.20;15.30;;;;;;;22.85;72.67;98118.02;105910;1284;25275;-82
2022/06/30 01:58:25;;;;;;;17.00;15.30;;;;;;;22.84;72.80;98117.88;105983;1283;25401;-82
2022/06/30 02:00:52;;;;;;;18.10;16.20;;;;;;;22.81;72.89;98114.70;106015;1283;137527;-82
2022/06/30 02:03:18;;;;;;;18.90;17.00;;;;;;;22.77;73.01;98114.07;106410;1283;24307;-82
2022/06/30 02:05:47;;;;;;;19.10;16.20;;;;;;;22.74;73.31;98115.45;106132;1282;137702;-82
2022/06/30 02:08:13;;;;;;;16.60;15.00;;;;;;;22.73;73.48;98118.34;106115;1283;22572;-82
2022/06/30 02:10:41;;;;;;;18.30;16.50;;;;;;;22.73;73.51;98119.27;105897;1284;24229;-82
2022/06/30 02:13:08;;;;;;;18.70;16.80;;;;;;;22.72;73.62;98114.42;106017;1283;138011;-82
2022/06/30 02:15:34;;;;;;;19.60;17.10;;;;;;;22.72;73.61;98115.11;106074;1283;22692;-82
2022/06/30 02:18:18;;;;;;;19.90;16.60;;;;;;;22.69;73.69;98119.34;106191;1283;137433;-82
2022/06/30 02:20:44;;;;;;;18.50;16.80;;;;;;;22.67;73.86;98116.40;105618;1283;22701;-84
2022/06/30 02:23:13;;;;;;;17.50;15.70;;;;;;;22.65;73.85;98119.02;106103;1284;138457;-82
2022/06/30 02:25:39;;;;;;;17.30;15.50;;;;;;;22.63;73.90;98116.19;105947;1284;22591;-83
2022/06/30 02:28:06;;;;;;;19.10;16.40;;;;;;;22.62;73.96;98112.80;105916;1284;25443;-82
2022/06/30 02:30:50;;;;;;;17.70;16.00;;;;;;;22.60;74.07;98114.05;105726;1284;137667;-82
2022/06/30 02:33:17;;;;;;;19.40;17.50;;;;;;;22.57;74.19;98111.58;105976;1284;22644;-82
2022/06/30 02:35:58;;;;;;;18.20;16.20;;;;;;;22.54;74.30;98111.42;106045;1283;137628;-82
2022/06/30 02:38:39;;;;;;;17.50;15.80;;;;;;;22.51;74.24;98109.81;106144;1283;25269;-82
2022/06/30 02:41:05;;;;;;;18.80;16.80;;;;;;;22.52;74.20;98103.60;106112;1283;138049;-82
2022/06/30 02:43:31;;;;;;;17.70;15.90;;;;;;;22.50;74.20;98106.05;106055;1283;22743;-82
2022/06/30 02:45:57;;;;;;;19.20;17.30;;;;;;;22.48;74.27;98111.02;105862;1283;22592;-82
2022/06/30 02:48:24;;;;;;;19.40;17.30;;;;;;;22.46;74.40;98109.30;105900;1283;137824;-82
2022/06/30 02:50:50;;;;;;;17.70;16.00;;;;;;;22.44;74.47;98106.27;106029;1283;24262;-82
2022/06/30 02:53:30;;;;;;;18.00;16.10;;;;;;;22.41;74.46;98106.85;105952;1283;138899;-82
2022/06/30 02:55:57;;;;;;;18.70;16.70;;;;;;;22.40;74.55;98109.20;106503;1283;22772;-82
2022/06/30 02:58:23;;;;;;;18.80;16.90;;;;;;;22.39;74.65;98110.98;105863;1283;24447;-82
2022/06/30 03:00:49;;;;;;;20.40;18.20;;;;;;;22.34;74.83;98122.20;106277;1283;138746;-82
2022/06/30 03:03:15;;;;;;;19.70;17.80;;;;;;;22.34;75.09;98127.20;106196;1283;22713;-82
2022/06/30 03:05:41;;;;;;;17.70;15.90;;;;;;;22.35;75.07;98117.01;106237;1283;138967;-82
2022/06/30 03:08:07;;;;;;;18.60;16.60;;;;;;;22.34;75.03;98120.61;106129;1283;22595;-82
2022/06/30 03:10:34;;;;;;;19.50;17.40;;;;;;;22.33;75.04;98117.77;106487;1283;23601;-82
2022/06/30 03:13:00;;;;;;;18.90;17.00;;;;;;;22.32;75.15;98122.02;106057;1283;137643;-82
2022/06/30 03:15:26;;;;;;;22.80;18.10;;;;;;;22.31;75.12;98124.27;106234;1283;22582;-81
2022/06/30 03:17:52;;;;;;;22.10;18.60;;;;;;;22.30;75.31;98120.82;105956;1283;137632;-82
2022/06/30 03:20:19;;;;;;;18.10;16.20;;;;;;;22.30;75.45;98125.09;105818;1283;25244;-82
2022/06/30 03:23:00;;;;;;;19.90;17.10;;;;;;;22.30;75.64;98126.29;106497;1283;138560;-82
2022/06/30 03:25:26;;;;;;;20.00;17.90;;;;;;;22.32;75.63;98121.79;105931;1283;22553;-82
2022/06/30 03:27:52;;;;;;;18.90;17.20;;;;;;;22.34;75.61;98118.77;105622;1283;22570;-82
2022/06/30 03:30:18;;;;;;;19.60;17.60;;;;;;;22.35;75.60;98116.91;105446;1283;137983;-82
2022/06/30 03:32:44;;;;;;;19.40;17.40;;;;;;;22.34;75.57;98115.77;105891;1284;22762;-82
2022/06/30 03:35:25;;;;;;;18.30;16.40;;;;;;;22.34;75.65;98110.30;105704;1283;138404;-82
2022/06/30 03:37:51;;;;;;;19.60;17.00;;;;;;;22.35;75.68;98109.60;105652;1283;25334;-82
2022/06/30 03:40:32;;;;;;;20.40;18.10;;;;;;;22.36;75.84;98109.56;105957;1283;22586;-82
2022/06/30 03:42:59;;;;;;;20.10;18.20;;;;;;;22.36;76.00;98110.61;105889;1283;137682;-82
2022/06/30 03:45:26;;;;;;;20.30;18.30;;;;;;;22.39;76.13;98115.27;106016;1284;23021;-82
2022/06/30 03:47:53;;;;;;;19.10;17.10;;;;;;;22.43;76.10;98113.82;106338;1284;138422;-82
2022/06/30 03:50:34;;;;;;;19.50;17.50;;;;;;;22.47;76.15;98120.10;105817;1283;25572;-81
2022/06/30 03:53:02;;;;;;;21.30;18.30;;;;;;;22.51;76.27;98124.08;105579;1284;138233;-81
2022/06/30 03:55:29;;;;;;;21.10;18.80;;;;;;;22.53;76.19;98131.08;106145;1283;25282;-82
2022/06/30 03:57:55;;;;;;;20.80;18.70;;;;;;;22.53;76.07;98135.68;105966;1283;26528;-82
2022/06/30 04:00:23;;;;;;;20.30;18.10;;;;;;;22.52;76.16;98133.14;105765;1283;137708;-81
2022/06/30 04:03:05;;;;;;;19.70;17.60;;;;;;;22.50;76.29;98129.82;105951;1283;22570;-82
2022/06/30 04:05:31;;;;;;;19.50;17.60;;;;;;;22.51;76.37;98128.23;105700;1283;138436;-82
2022/06/30 04:08:12;;;;;;;21.00;17.90;;;;;;;22.52;76.59;98129.36;105725;1283;26202;-81
2022/06/30 04:10:38;;;;;;;20.90;18.80;;;;;;;22.54;76.74;98132.05;105909;1283;22551;-81
2022/06/30 04:13:04;;;;;;;21.80;18.50;;;;;;;22.60;76.85;98132.05;105858;1283;137449;-82
2022/06/30 04:15:31;;;;;;;19.70;17.40;;;;;;;22.65;76.72;98134.41;105790;1284;24246;-82
2022/06/30 04:17:57;;;;;;;21.80;18.00;;;;;;;22.71;76.74;98134.78;105841;1283;138412;-82
2022/06/30 04:20:23;;;;;;;21.40;19.00;;;;;;;22.79;76.82;98134.99;105899;1283;22578;-81
2022/06/30 04:22:53;;;;;;;22.30;18.90;;;;;;;22.86;76.69;98131.56;106302;1283;24437;-81
2022/06/30 04:25:34;;;;;;;21.50;19.30;;;;;;;22.94;76.50;98133.68;106049;1283;22579;-83
2022/06/30 04:28:00;;;;;;;19.70;17.60;;;;;;;22.99;76.23;98137.45;105874;1283;25269;-84
2022/06/30 04:33:07;;;;;;;20.00;17.80;;;;;;;23.03;75.71;98140.71;105897;1283;30306;-84
2022/06/30 04:35:35;;;;;;;20.60;18.60;;;;;;;23.04;75.65;98139.52;106148;1283;137778;-83
2022/06/30 04:38:04;;;;;;;21.10;19.00;;;;;;;23.06;75.66;98138.19;106232;1283;22552;-84
2022/06/30 04:43:25;;;;;;;18.30;16.40;;;;;;;23.12;75.35;98140.64;106119;1283;32302;-84
2022/06/30 04:45:51;;;;;;;19.30;17.30;;;;;;;23.16;75.12;98140.06;106316;1283;22597;-84
2022/06/30 04:48:17;;;;;;;20.50;18.40;;;;;;;23.21;75.02;98140.90;105734;1283;137534;-88
2022/06/30 04:50:58;;;;;;;21.40;18.70;;;;;;;23.26;75.01;98139.94;105879;1283;24362;-86
2022/06/30 04:53:25;;;;;;;19.70;17.70;;;;;;;23.32;74.95;98143.09;105725;1286;137622;-82
2022/06/30 04:55:51;;;;;;;20.50;18.40;;;;;;;23.36;74.74;98141.73;106234;1283;26514;-83
2022/06/30 04:58:17;;;;;;;19.00;17.20;;;;;;;23.43;74.82;98147.86;105837;1283;22617;-82
2022/06/30 05:00:43;;;;;;;20.90;18.60;;;;;;;23.48;74.65;98147.92;105562;1283;137949;-83
2022/06/30 05:03:09;;;;;;;22.40;19.10;;;;;;;23.53;74.55;98150.23;105746;1282;24307;-83
2022/06/30 05:05:35;;;;;;;20.40;18.30;;;;;;;23.58;74.31;98147.72;105805;1283;137925;-84
2022/06/30 05:08:02;;;;;;;20.80;18.60;;;;;;;23.62;74.40;98147.56;105700;1283;23242;-85
2022/06/30 05:10:28;;;;;;;22.00;19.60;;;;;;;23.65;74.02;98147.14;105557;1285;22541;-85
2022/06/30 05:12:54;;;;;;;20.80;18.10;;;;;;;23.67;73.88;98146.17;105779;1284;138476;-84
2022/06/30 05:15:20;;;;;;;22.20;19.90;;;;;;;23.71;73.48;98147.84;105697;1283;25365;-84
2022/06/30 05:17:46;;;;;;;24.10;19.80;;;;;;;23.77;73.31;98154.09;105735;1284;137783;-86
2022/06/30 05:20:13;;;;;;;21.60;19.40;;;;;;;23.82;73.15;98155.83;105584;1284;23795;-83
2022/06/30 05:22:53;;;;;;;22.70;19.40;;;;;;;23.90;73.31;98159.59;105962;1283;22570;-85
2022/06/30 05:28:00;;;;;;;22.80;19.10;;;;;;;24.00;73.16;98158.71;105949;1283;25333;-80
2022/06/30 05:30:26;;;;;;;23.70;18.60;;;;;;;24.05;72.86;98144.91;105736;1283;138205;-82
2022/06/30 05:32:53;;;;;;;23.70;19.70;;;;;;;24.09;72.57;98145.20;105947;1284;22561;-82
2022/06/30 05:35:19;;;;;;;24.30;20.30;;;;;;;24.11;72.29;98150.83;105862;1283;137687;-83
2022/06/30 05:37:46;;;;;;;23.20;20.70;;;;;;;24.15;72.32;98155.89;105833;1283;23304;-82
2022/06/30 05:40:12;;;;;;;21.00;18.80;;;;;;;24.20;72.20;98149.95;106154;1283;22631;-82
2022/06/30 05:42:53;;;;;;;21.30;18.20;;;;;;;24.25;72.30;98146.88;105998;1284;137528;-82
2022/06/30 05:45:34;;;;;;;25.50;19.40;;;;;;;24.30;71.90;98152.07;105979;1283;22608;-82
2022/06/30 05:48:00;;;;;;;26.10;19.30;;;;;;;24.35;71.60;98148.19;105899;1283;138422;-82
2022/06/30 05:50:26;;;;;;;22.70;19.20;;;;;;;24.40;71.38;98140.50;105757;1283;24242;-82
2022/06/30 05:52:53;;;;;;;23.50;19.90;;;;;;;24.47;71.19;98142.15;105982;1283;22600;-82
2022/06/30 05:55:33;;;;;;;24.50;19.80;;;;;;;24.54;70.91;98143.05;106096;1283;22631;-83
2022/06/30 05:58:06;;;;;;;23.30;20.40;;;;;;;24.59;70.76;98144.77;105731;1286;23938;-83
2022/06/30 06:00:34;;;;;;;31.20;20.20;;;;;;;24.63;70.68;98146.48;105775;1283;137660;-83
2022/06/30 06:03:00;;;;;;;25.50;19.40;;;;;;;24.63;70.53;98143.94;105831;1283;25481;-83
2022/06/30 06:05:27;;;;;;;29.50;18.90;;;;;;;24.66;70.90;98147.77;105920;1283;138505;-82
2022/06/30 06:07:53;;;;;;;23.90;19.00;;;;;;;24.71;70.48;98145.67;106022;1284;22570;-83
2022/06/30 06:10:20;;;;;;;29.00;20.50;;;;;;;24.73;70.39;98149.28;106146;1283;24385;-83
2022/06/30 06:12:47;;;;;;;29.60;19.90;;;;;;;24.80;70.56;98151.09;106128;1283;138467;-82
2022/06/30 06:15:15;;;;;;;32.90;19.40;;;;;;;24.87;70.41;98145.44;106653;1283;31519;-82
2022/06/30 06:17:42;;;;;;;25.30;19.10;;;;;;;24.95;69.98;98143.21;106402;1283;137509;-82
2022/06/30 06:20:10;;;;;;;22.60;18.80;;;;;;;25.01;70.19;98145.17;107206;1283;22554;-83
2022/06/30 06:22:36;;;;;;;21.80;18.20;;;;;;;25.10;70.25;98145.44;106381;1285;24271;-83
2022/06/30 06:25:03;;;;;;;24.00;19.10;;;;;;;25.20;70.44;98149.75;106423;1283;137969;-83
2022/06/30 06:27:29;;;;;;;25.10;17.70;;;;;;;25.30;70.39;98150.95;105978;1283;22683;-82
2022/06/30 06:29:56;;;;;;;26.40;17.80;;;;;;;25.36;69.52;98151.02;106347;1284;137798;-82
2022/06/30 06:32:22;;;;;;;29.10;18.80;;;;;;;25.43;69.27;98152.03;106288;1284;22573;-83
2022/06/30 06:34:48;;;;;;;21.50;17.00;;;;;;;25.50;68.99;98157.65;106507;1284;22584;-83
2022/06/30 06:37:15;;;;;;;23.00;16.50;;;;;;;25.57;68.79;98159.61;106705;1282;137579;-83
2022/06/30 06:39:41;;;;;;;22.00;17.20;;;;;;;25.66;68.70;98164.51;106330;1282;22702;-83
2022/06/30 06:42:07;;;;;;;23.00;16.70;;;;;;;25.76;68.34;98162.80;106800;1283;137477;-82
2022/06/30 06:44:38;;;;;;;21.20;17.10;;;;;;;25.85;67.98;98163.39;106441;1284;23478;-83
2022/06/30 06:47:18;;;;;;;29.60;17.10;;;;;;;25.95;67.75;98168.79;106701;1283;138382;-84
2022/06/30 06:49:45;;;;;;;23.70;17.50;;;;;;;26.04;67.72;98174.56;106411;1283;23618;-83
2022/06/30 06:52:11;;;;;;;27.60;18.30;;;;;;;26.13;67.22;98173.80;106617;1283;22617;-84
2022/06/30 06:54:37;;;;;;;24.80;17.60;;;;;;;26.23;67.14;98175.25;106633;1282;137643;-84
2022/06/30 06:57:04;;;;;;;25.70;17.00;;;;;;;26.32;66.63;98176.70;106379;1283;22572;-83
2022/06/30 06:59:31;;;;;;;26.90;18.40;;;;;;;26.39;65.74;98172.04;106712;1283;137668;-84
2022/06/30 07:01:57;;;;;;;25.50;16.50;;;;;;;26.45;65.48;98173.79;106594;1283;25343;-83
2022/06/30 07:04:24;;;;;;;26.40;16.20;;;;;;;26.52;64.87;98167.83;106554;1283;24077;-83
2022/06/30 07:06:50;;;;;;;20.20;16.10;;;;;;;26.59;64.85;98167.63;106527;1283;137499;-83
2022/06/30 07:09:16;;;;;;;25.60;16.00;;;;;;;26.66;64.92;98166.95;106206;1283;22591;-83
2022/06/30 07:11:43;;;;;;;19.70;15.90;;;;;;;26.73;64.61;98166.09;106416;1283;138511;-83
2022/06/30 07:14:09;;;;;;;23.70;17.40;;;;;;;26.79;64.05;98166.48;106165;1283;22536;-85
2022/06/30 07:16:35;;;;;;;22.30;16.30;;;;;;;26.82;63.92;98166.48;106000;1283;23209;-81
2022/06/30 07:19:02;;;;;;;23.60;16.90;;;;;;;26.87;63.32;98166.06;105875;1283;137795;-78
2022/06/30 07:21:28;;;;;;;18.60;16.80;;;;;;;26.94;63.40;98168.36;106771;1283;23474;-86
2022/06/30 07:23:54;;;;;;;25.70;16.80;;;;;;;27.01;63.02;98164.23;106594;1283;137516;-86
2022/06/30 07:27:01;;;;;;;17.20;15.40;;;;;;;27.11;62.94;98165.83;107475;1283;24401;-94
2022/06/30 07:37:24;;;;;;;29.30;17.30;;;;;;;27.58;62.48;98158.89;106781;1284;137604;-92
2022/06/30 07:43:11;;;;;;;20.70;16.30;;;;;;;27.95;61.83;98153.94;105959;1284;137503;-87
2022/06/30 07:45:38;;;;;;;22.60;16.40;;;;;;;28.08;61.47;98152.66;105594;1284;24243;-81
2022/06/30 07:48:04;;;;;;;20.80;15.70;;;;;;;28.22;61.44;98158.06;105749;1285;138191;-77
2022/06/30 07:50:45;;;;;;;18.70;15.60;;;;;;;28.36;60.82;98160.51;105961;1284;22600;-81
2022/06/30 07:53:11;;;;;;;20.20;15.00;;;;;;;28.49;60.67;98160.04;106071;1284;138297;-78
2022/06/30 07:55:38;;;;;;;25.30;16.40;;;;;;;28.61;60.33;98156.28;106004;1284;22727;-82
2022/06/30 07:58:04;;;;;;;21.30;15.70;;;;;;;28.74;59.96;98156.27;105953;1284;25393;-83
2022/06/30 08:00:30;;;;;;;19.60;16.30;;;;;;;28.87;59.03;98153.61;105522;1284;137653;-79
2022/06/30 08:03:11;;;;;;;19.60;16.10;;;;;;;29.01;58.44;98152.16;105795;1284;22677;-86
2022/06/30 08:05:38;;;;;;;27.00;15.90;;;;;;;29.12;58.10;98150.83;105806;1284;138081;-83
2022/06/30 08:08:10;;;;;;;44.30;16.50;;;;;;;29.22;57.88;98150.02;105513;1285;22576;-82
2022/06/30 08:10:36;;;;;;;35.90;16.00;;;;;;;29.34;57.35;98153.17;105799;1284;22592;-87
2022/06/30 08:13:02;;;;;;;33.10;17.10;;;;;;;29.46;56.60;98153.43;105756;1285;138108;-86
2022/06/30 08:15:28;;;;;;;32.90;15.80;;;;;;;29.57;56.31;98157.52;105779;1284;25654;-88
2022/06/30 08:17:55;;;;;;;33.20;15.30;;;;;;;29.68;55.88;98154.46;105985;1283;137567;-87
2022/06/30 08:20:23;;;;;;;23.80;14.80;;;;;;;29.82;56.12;98150.66;106162;1282;25454;-89
2022/06/30 08:22:49;;;;;;;;;;;;;;;29.95;55.88;98145.69;106077;1284;22590;-89
2022/06/30 08:25:16;;;;;;;21.90;14.60;;;;;;;30.09;55.74;98150.67;105547;1284;123460;-90
2022/06/30 08:27:42;;;;;;;19.10;14.00;;;;;;;30.27;55.43;98153.92;105865;1285;25336;-88
2022/06/30 08:30:10;;;;;;;28.00;15.10;;;;;;;30.42;55.15;98155.48;105508;1284;137465;-88
2022/06/30 08:32:37;;;;;;;26.20;15.10;;;;;;;30.57;54.33;98154.91;105955;1282;22591;-87
2022/06/30 08:35:04;;;;;;;22.80;15.40;;;;;;;30.71;53.78;98154.58;105838;1282;137691;-87
2022/06/30 08:37:31;;;;;;;26.20;15.10;;;;;;;30.86;53.42;98157.36;105998;1282;22724;-87
2022/06/30 08:42:40;;;;;;;17.20;13.20;;;;;;;31.17;52.62;98147.84;106327;1284;137804;-87
2022/06/30 08:45:13;;;;;;;23.90;12.90;;;;;;;31.33;51.41;98145.37;106296;1284;24463;-87
2022/06/30 08:47:41;;;;;;;40.70;14.10;;;;;;;31.46;51.02;98146.75;105607;1285;138695;-87
2022/06/30 08:50:08;;;;;;;17.30;12.90;;;;;;;31.61;51.02;98138.96;106308;1285;22183;-86
2022/06/30 08:52:51;;;;;;;24.50;14.10;;;;;;;31.74;49.91;98141.63;105802;1285;22654;-85
2022/06/30 08:55:32;;;;;;;15.40;11.70;;;;;;;31.89;49.73;98143.05;105636;1285;22563;-85
2022/06/30 08:58:05;;;;;;;14.50;11.10;;;;;;;32.02;49.38;98143.67;106095;1283;22665;-84
2022/06/30 09:00:46;;;;;;;12.20;11.00;;;;;;;32.14;48.02;98146.00;106606;1282;137522;-83
2022/06/30 09:03:27;;;;;;;15.40;10.50;;;;;;;32.28;46.32;98147.08;106336;1282;25374;-83
2022/06/30 09:05:55;;;;;;;12.90;11.00;;;;;;;32.39;46.02;98148.25;106445;1282;137503;-83
2022/06/30 09:08:22;;;;;;;19.50;11.50;;;;;;;32.51;46.48;98145.85;105767;1284;22692;-84
2022/06/30 09:10:55;;;;;;;14.10;11.90;;;;;;;32.63;46.75;98146.79;106238;1284;23608;-82
2022/06/30 09:13:23;;;;;;;16.20;12.30;;;;;;;32.69;46.07;98142.67;106278;1283;22728;-83
2022/06/30 09:15:50;;;;;;;13.90;11.90;;;;;;;32.85;46.59;98147.13;106128;1285;23472;-83
2022/06/30 09:18:25;;;;;;;14.10;12.70;;;;;;;33.01;46.89;98146.16;105483;1285;137983;-83
2022/06/30 09:20:52;;;;;;;14.10;11.90;;;;;;;33.14;46.23;98142.46;106237;1284;25396;-83
2022/06/30 09:23:26;;;;;;;12.90;11.40;;;;;;;33.26;45.95;98138.92;105661;1285;137976;-85
2022/06/30 09:25:56;;;;;;;12.10;10.70;;;;;;;33.36;44.97;98141.64;105787;1285;24294;-87
2022/06/30 09:28:41;;;;;;;12.30;10.50;;;;;;;33.47;44.38;98141.62;105940;1284;22646;-86
2022/06/30 09:31:54;;;;;;;14.20;10.80;;;;;;;33.59;44.18;98139.02;106271;1284;22711;-87
2022/06/30 09:34:22;;;;;;;12.10;9.90;;;;;;;33.73;43.25;98137.55;105485;1284;23292;-86
2022/06/30 09:36:52;;;;;;;12.70;10.30;;;;;;;33.84;42.07;98136.38;106013;1284;138128;-87
2022/06/30 09:39:21;;;;;;;10.90;9.30;;;;;;;33.92;42.27;98132.71;106127;1285;22676;-87
2022/06/30 09:41:49;;;;;;;11.10;9.80;;;;;;;34.03;41.83;98135.73;105870;1283;137670;-86
2022/06/30 09:44:15;;;;;;;11.20;10.10;;;;;;;34.15;42.13;98129.61;105737;1285;22646;-87
2022/06/30 09:47:02;;;;;;;11.90;10.40;;;;;;;34.28;41.45;98123.84;105917;1283;137839;-85
2022/06/30 09:49:47;;;;;;;10.70;9.40;;;;;;;34.37;41.18;98124.35;106059;1284;25281;-86
2022/06/30 09:52:28;;;;;;;11.50;8.40;;;;;;;34.47;40.27;98118.64;106088;1284;24355;-87
2022/06/30 09:55:01;;;;;;;9.90;8.80;;;;;;;34.58;40.06;98115.33;106032;1284;137476;-86
2022/06/30 09:57:30;;;;;;;9.80;8.60;;;;;;;34.75;40.10;98120.31;105764;1284;22556;-86
2022/06/30 10:00:15;;;;;;;9.40;8.40;;;;;;;34.93;39.22;98115.33;106024;1283;137233;-84
2022/06/30 10:02:49;;;;;;;11.60;9.00;;;;;;;35.09;38.92;98113.48;105716;1284;23476;-88
2022/06/30 10:05:18;;;;;;;7.60;6.50;;;;;;;35.24;38.12;98109.89;105361;1285;137314;-82
2022/06/30 10:08:07;;;;;;;7.10;6.50;;;;;;;35.37;36.85;98109.69;105950;1284;22594;-88
2022/06/30 10:10:43;;;;;;;9.10;7.30;;;;;;;35.45;35.27;98103.36;106234;1284;22726;-81
2022/06/30 10:13:17;;;;;;;8.50;7.50;;;;;;;35.49;35.85;98098.23;105584;1285;137241;-85
2022/06/30 10:15:54;;;;;;;7.80;7.00;;;;;;;35.60;36.32;98097.52;105626;1285;22674;-82
2022/06/30 10:18:30;;;;;;;10.90;6.90;;;;;;;35.74;35.75;98099.58;105448;1284;137495;-85
2022/06/30 10:20:58;;;;;;;8.40;6.50;;;;;;;35.86;36.01;98099.60;105945;1284;22996;-87
2022/06/30 10:23:24;;;;;;;;;;;;;;;35.97;35.22;98096.86;105566;1284;137539;-81
2022/06/30 10:25:52;;;;;;;7.90;6.00;;;;;;;36.05;34.59;98097.16;106082;1284;22794;-85
2022/06/30 10:28:23;;;;;;;8.20;6.10;;;;;;;36.13;33.53;98095.77;105503;1284;24220;-89
2022/06/30 10:31:15;;;;;;;6.90;6.00;;;;;;;36.20;33.86;98094.30;105750;1285;137380;-87
2022/06/30 10:33:59;;;;;;;6.50;5.90;;;;;;;36.41;34.14;98096.02;105837;1284;22579;-87
2022/06/30 10:36:36;;;;;;;7.60;5.50;;;;;;;36.55;32.48;98099.46;105448;1284;137274;-87
2022/06/30 10:39:15;;;;;;;6.00;5.40;;;;;;;36.66;31.94;98099.14;105610;1284;25612;-88
2022/06/30 10:41:45;;;;;;;8.10;5.80;;;;;;;36.75;31.60;98100.55;106357;1284;137225;-86
2022/06/30 10:44:28;;;;;;;7.90;6.60;;;;;;;36.81;32.57;98099.55;106209;1283;22593;-87
2022/06/30 10:46:57;;;;;;;6.70;5.80;;;;;;;36.92;31.03;98095.23;106365;1284;22560;-88
2022/06/30 10:49:25;;;;;;;8.20;6.00;;;;;;;36.80;31.21;98094.55;106033;1284;22610;-88
2022/06/30 10:51:56;;;;;;;8.70;5.90;;;;;;;36.80;32.28;98092.36;105792;1284;23340;-86
2022/06/30 10:54:30;;;;;;;7.40;5.80;;;;;;;36.90;31.90;98091.63;105828;1284;137165;-86
2022/06/30 10:56:58;;;;;;;7.50;5.70;;;;;;;37.00;31.42;98088.93;106298;1284;22936;-88
2022/06/30 10:59:41;;;;;;;6.60;5.60;;;;;;;37.10;30.73;98085.59;106242;1284;138951;-85
2022/06/30 11:02:11;;;;;;;7.00;6.20;;;;;;;37.23;31.39;98087.65;106587;1284;24241;-86
2022/06/30 11:05:23;;;;;;;12.00;6.20;;;;;;;37.23;31.27;98084.73;106115;1284;23153;-86
2022/06/30 11:08:31;;;;;;;7.40;6.70;;;;;;;37.02;31.66;98081.45;106193;1284;22580;-87
2022/06/30 11:10:58;;;;;;;7.60;6.50;;;;;;;36.62;31.99;98079.73;106066;1284;138122;-86
2022/06/30 11:13:28;;;;;;;7.00;6.40;;;;;;;36.55;32.15;98079.13;106110;1284;22619;-86
2022/06/30 11:15:55;;;;;;;7.00;6.20;;;;;;;36.58;31.80;98075.59;106079;1284;22574;-88
2022/06/30 11:18:23;;;;;;;5.90;5.00;;;;;;;36.66;31.08;98072.86;106001;1284;137799;-87
2022/06/30 11:20:51;;;;;;;6.10;4.10;;;;;;;36.71;29.37;98068.59;106437;1284;24406;-86
2022/06/30 11:23:18;;;;;;;6.50;5.00;;;;;;;36.87;28.62;98066.36;106222;1284;138559;-85
2022/06/30 11:28:42;;;;;;;6.50;4.70;;;;;;;37.38;28.24;98063.26;106207;1284;22607;-85
2022/06/30 11:31:25;;;;;;;7.10;5.10;;;;;;;37.48;29.03;98062.67;105892;1284;137175;-85
2022/06/30 11:33:57;;;;;;;5.70;5.10;;;;;;;37.58;28.82;98059.69;106387;1284;22553;-86
2022/06/30 11:36:40;;;;;;;;;;;;;;;37.71;29.20;98057.29;106540;1284;137259;-84
2022/06/30 11:39:11;;;;;;;7.80;6.00;;;;;;;37.85;29.29;98052.99;106219;1284;22688;-83
2022/06/30 11:44:32;;;;;;;7.90;7.00;;;;;;;38.24;29.75;98050.84;105830;1285;24435;-85
2022/06/30 11:47:18;;;;;;;7.80;6.10;;;;;;;38.46;29.87;98051.46;106345;1284;138683;-85
2022/06/30 11:50:00;;;;;;;7.60;6.80;;;;;;;38.61;29.46;98051.63;106251;1284;24368;-84
2022/06/30 11:52:41;;;;;;;;;;;;;;;38.74;29.57;98047.29;106247;1284;32876;-83
2022/06/30 11:55:10;;;;;;;8.70;6.20;;;;;;;38.88;29.79;98045.91;106018;1282;123595;-83